Portada
METAR-TAF:

METAR-TAF

Aeroports :

Pantel·leria, Itàlia

latitud: 36-49N, longitud: 011-58E, altitud: 191 m

Observació

L'informe es va fer fa 6 hores i 33 minuts, a les 17:50 UTC
Vent 5 kt del Sud
Temperatura 30°C
Humitat 24%
Pressió 1017 hPa
Visibilitat 10 km o més
sense núvols per sota de 1500 mi sense presència de cumulonimbus.

METAR: LICG 191750Z 17005KT CAVOK 30/07 Q1017

Hora: 02:23 (00:23 UTC)

Pronòstic

L'informe es va fer fa 10 hores i 23 minuts, a les 14:00 UTC
Pronòstic vàlid del 19 a les 15 UTC al 19 a les 24 UTC
Vent 12 kt del Sud/Sud-Est
Visibilitat 10 km o més
sense núvols per sota de 1500 mi sense presència de cumulonimbus.

TAF: LICG 191400Z 1915/1924 16012KT CAVOK

Observacions i pronòstics meteorològics de més de 4000 aeroports (METAR i TAF).

Les estacions disponibles són els punts grocs i vermells al mapa.

Posi el ratolí al punt desitjat per veure el nom de l'estació.

Feu clic per veure les observacions i els pronòstics meteorològics.

Per canviar el mapa: feu clic els botons verds amb una creu de color negre per apropar; al botó verd amb un guió per allunyar la imatge; o en les fletxes verdes per a mapes adjacents.


METAR-TAF: